sensor_id;sensor_type;location;lat;lon;timestamp;P1;durP1;ratioP1;P2;durP2;ratioP2
21804;SDS011;11064;47.102;15.452;2022-11-21T05:02:50;32.72;;;16.25;;
21804;SDS011;11064;47.102;15.452;2022-11-21T05:05:16;26.90;;;15.30;;
21804;SDS011;11064;47.102;15.452;2022-11-21T05:07:42;27.98;;;15.07;;
21804;SDS011;11064;47.102;15.452;2022-11-21T05:10:08;31.15;;;15.60;;
21804;SDS011;11064;47.102;15.452;2022-11-21T05:12:34;30.00;;;15.63;;
21804;SDS011;11064;47.102;15.452;2022-11-21T05:15:18;26.88;;;14.50;;
21804;SDS011;11064;47.102;15.452;2022-11-21T05:17:44;27.80;;;14.88;;
21804;SDS011;11064;47.102;15.452;2022-11-21T05:20:10;24.50;;;13.75;;
21804;SDS011;11064;47.102;15.452;2022-11-21T05:22:37;26.48;;;15.32;;
21804;SDS011;11064;47.102;15.452;2022-11-21T05:25:03;27.85;;;15.23;;
21804;SDS011;11064;47.102;15.452;2022-11-21T05:27:29;29.10;;;15.52;;
21804;SDS011;11064;47.102;15.452;2022-11-21T05:29:55;26.98;;;14.25;;
21804;SDS011;11064;47.102;15.452;2022-11-21T05:32:21;28.52;;;14.95;;
21804;SDS011;11064;47.102;15.452;2022-11-21T05:34:47;25.23;;;14.63;;
21804;SDS011;11064;47.102;15.452;2022-11-21T05:37:12;26.83;;;14.65;;
21804;SDS011;11064;47.102;15.452;2022-11-21T05:39:38;24.63;;;14.35;;
21804;SDS011;11064;47.102;15.452;2022-11-21T05:42:04;23.17;;;14.00;;
21804;SDS011;11064;47.102;15.452;2022-11-21T05:44:29;23.48;;;14.02;;
21804;SDS011;11064;47.102;15.452;2022-11-21T05:46:55;21.88;;;13.27;;
21804;SDS011;11064;47.102;15.452;2022-11-21T05:49:21;23.23;;;13.27;;
21804;SDS011;11064;47.102;15.452;2022-11-21T05:51:47;20.10;;;12.75;;
21804;SDS011;11064;47.102;15.452;2022-11-21T05:54:13;24.65;;;13.73;;
21804;SDS011;11064;47.102;15.452;2022-11-21T05:56:39;22.48;;;12.68;;
21804;SDS011;11064;47.102;15.452;2022-11-21T05:59:05;22.65;;;12.88;;
21804;SDS011;11064;47.102;15.452;2022-11-21T06:01:32;20.20;;;12.88;;
21804;SDS011;11064;47.102;15.452;2022-11-21T06:04:16;20.67;;;12.07;;
21804;SDS011;11064;47.102;15.452;2022-11-21T06:06:43;21.65;;;13.02;;
21804;SDS011;11064;47.102;15.452;2022-11-21T06:09:08;19.33;;;12.32;;
21804;SDS011;11064;47.102;15.452;2022-11-21T06:11:34;22.55;;;12.70;;
21804;SDS011;11064;47.102;15.452;2022-11-21T06:14:00;21.27;;;13.18;;
21804;SDS011;11064;47.102;15.452;2022-11-21T06:16:25;20.83;;;12.82;;
21804;SDS011;11064;47.102;15.452;2022-11-21T06:18:51;20.30;;;12.32;;
21804;SDS011;11064;47.102;15.452;2022-11-21T06:21:18;21.42;;;12.82;;
21804;SDS011;11064;47.102;15.452;2022-11-21T06:23:45;18.80;;;12.63;;
21804;SDS011;11064;47.102;15.452;2022-11-21T06:26:14;21.15;;;13.18;;
21804;SDS011;11064;47.102;15.452;2022-11-21T06:28:43;21.02;;;13.38;;
21804;SDS011;11064;47.102;15.452;2022-11-21T06:31:14;20.25;;;12.13;;
21804;SDS011;11064;47.102;15.452;2022-11-21T06:33:42;21.73;;;12.48;;
21804;SDS011;11064;47.102;15.452;2022-11-21T06:36:10;19.83;;;12.10;;
21804;SDS011;11064;47.102;15.452;2022-11-21T06:38:38;20.65;;;12.85;;
21804;SDS011;11064;47.102;15.452;2022-11-21T06:43:30;20.45;;;12.23;;
21804;SDS011;11064;47.102;15.452;2022-11-21T06:45:56;19.65;;;12.25;;
21804;SDS011;11064;47.102;15.452;2022-11-21T06:48:22;19.10;;;12.50;;
21804;SDS011;11064;47.102;15.452;2022-11-21T06:50:48;21.42;;;12.70;;
21804;SDS011;11064;47.102;15.452;2022-11-21T06:53:14;21.13;;;13.32;;
21804;SDS011;11064;47.102;15.452;2022-11-21T06:55:40;19.98;;;12.65;;
21804;SDS011;11064;47.102;15.452;2022-11-21T06:58:06;18.10;;;12.63;;
21804;SDS011;11064;47.102;15.452;2022-11-21T07:00:31;23.38;;;13.50;;
21804;SDS011;11064;47.102;15.452;2022-11-21T07:03:00;27.75;;;15.60;;
21804;SDS011;11064;47.102;15.452;2022-11-21T07:05:27;36.20;;;17.50;;
21804;SDS011;11064;47.102;15.452;2022-11-21T07:07:57;30.58;;;17.92;;
21804;SDS011;11064;47.102;15.452;2022-11-21T07:10:27;36.10;;;19.23;;
21804;SDS011;11064;47.102;15.452;2022-11-21T07:12:57;58.03;;;24.02;;
21804;SDS011;11064;47.102;15.452;2022-11-21T07:15:42;47.75;;;23.27;;
21804;SDS011;11064;47.102;15.452;2022-11-21T07:18:09;91.70;;;22.67;;
21804;SDS011;11064;47.102;15.452;2022-11-21T07:20:35;74.30;;;20.88;;
21804;SDS011;11064;47.102;15.452;2022-11-21T07:23:00;56.67;;;19.77;;
21804;SDS011;11064;47.102;15.452;2022-11-21T07:25:26;35.15;;;18.85;;
21804;SDS011;11064;47.102;15.452;2022-11-21T07:27:52;37.45;;;20.17;;
21804;SDS011;11064;47.102;15.452;2022-11-21T07:30:17;36.38;;;19.42;;
21804;SDS011;11064;47.102;15.452;2022-11-21T07:32:43;34.45;;;19.65;;
21804;SDS011;11064;47.102;15.452;2022-11-21T07:35:09;32.08;;;18.20;;
21804;SDS011;11064;47.102;15.452;2022-11-21T07:37:38;30.13;;;17.52;;
21804;SDS011;11064;47.102;15.452;2022-11-21T07:40:04;27.65;;;16.73;;
21804;SDS011;11064;47.102;15.452;2022-11-21T07:42:33;27.25;;;16.80;;
21804;SDS011;11064;47.102;15.452;2022-11-21T07:44:59;27.45;;;16.55;;
21804;SDS011;11064;47.102;15.452;2022-11-21T07:47:25;28.48;;;16.35;;
21804;SDS011;11064;47.102;15.452;2022-11-21T07:49:50;29.67;;;16.85;;
21804;SDS011;11064;47.102;15.452;2022-11-21T07:52:16;28.33;;;17.08;;
21804;SDS011;11064;47.102;15.452;2022-11-21T07:54:42;30.25;;;17.55;;
21804;SDS011;11064;47.102;15.452;2022-11-21T07:57:08;30.85;;;17.50;;
21804;SDS011;11064;47.102;15.452;2022-11-21T07:59:33;42.42;;;21.35;;
21804;SDS011;11064;47.102;15.452;2022-11-21T08:01:59;40.63;;;22.15;;
21804;SDS011;11064;47.102;15.452;2022-11-21T08:04:25;52.47;;;25.65;;
21804;SDS011;11064;47.102;15.452;2022-11-21T08:06:52;41.40;;;23.17;;
21804;SDS011;11064;47.102;15.452;2022-11-21T08:09:18;46.97;;;23.98;;
21804;SDS011;11064;47.102;15.452;2022-11-21T08:11:43;33.58;;;19.58;;
21804;SDS011;11064;47.102;15.452;2022-11-21T08:14:09;31.30;;;18.08;;
21804;SDS011;11064;47.102;15.452;2022-11-21T08:16:35;33.22;;;19.23;;
21804;SDS011;11064;47.102;15.452;2022-11-21T08:19:01;35.90;;;17.88;;
21804;SDS011;11064;47.102;15.452;2022-11-21T08:21:26;28.60;;;16.73;;
21804;SDS011;11064;47.102;15.452;2022-11-21T08:23:53;28.10;;;16.40;;
21804;SDS011;11064;47.102;15.452;2022-11-21T08:26:19;26.52;;;16.48;;
21804;SDS011;11064;47.102;15.452;2022-11-21T08:28:45;24.20;;;15.02;;
21804;SDS011;11064;47.102;15.452;2022-11-21T08:31:11;22.90;;;15.73;;
21804;SDS011;11064;47.102;15.452;2022-11-21T08:33:36;23.25;;;15.32;;
21804;SDS011;11064;47.102;15.452;2022-11-21T08:36:03;21.95;;;14.60;;
21804;SDS011;11064;47.102;15.452;2022-11-21T08:38:30;22.83;;;13.80;;
21804;SDS011;11064;47.102;15.452;2022-11-21T08:40:56;22.27;;;13.60;;
21804;SDS011;11064;47.102;15.452;2022-11-21T08:43:41;18.00;;;11.82;;
21804;SDS011;11064;47.102;15.452;2022-11-21T08:46:07;19.73;;;12.55;;
21804;SDS011;11064;47.102;15.452;2022-11-21T08:48:32;22.45;;;11.82;;
21804;SDS011;11064;47.102;15.452;2022-11-21T08:50:58;17.85;;;11.73;;
21804;SDS011;11064;47.102;15.452;2022-11-21T08:53:24;17.83;;;11.35;;
21804;SDS011;11064;47.102;15.452;2022-11-21T08:55:50;15.55;;;9.45;;
21804;SDS011;11064;47.102;15.452;2022-11-21T08:58:17;13.88;;;9.10;;
21804;SDS011;11064;47.102;15.452;2022-11-21T09:00:43;14.35;;;9.57;;
21804;SDS011;11064;47.102;15.452;2022-11-21T09:03:09;16.00;;;9.57;;
21804;SDS011;11064;47.102;15.452;2022-11-21T09:05:34;14.73;;;9.70;;
21804;SDS011;11064;47.102;15.452;2022-11-21T09:08:00;13.98;;;8.88;;
21804;SDS011;11064;47.102;15.452;2022-11-21T09:10:26;16.80;;;8.63;;
21804;SDS011;11064;47.102;15.452;2022-11-21T09:12:53;14.35;;;8.30;;
21804;SDS011;11064;47.102;15.452;2022-11-21T09:15:21;10.70;;;8.00;;
21804;SDS011;11064;47.102;15.452;2022-11-21T09:18:06;13.93;;;7.72;;
21804;SDS011;11064;47.102;15.452;2022-11-21T09:20:35;9.68;;;7.15;;
21804;SDS011;11064;47.102;15.452;2022-11-21T09:23:05;11.75;;;7.65;;
21804;SDS011;11064;47.102;15.452;2022-11-21T09:25:32;12.05;;;7.15;;
21804;SDS011;11064;47.102;15.452;2022-11-21T09:28:01;10.00;;;6.68;;
21804;SDS011;11064;47.102;15.452;2022-11-21T09:30:28;12.02;;;7.55;;
21804;SDS011;11064;47.102;15.452;2022-11-21T09:32:57;10.52;;;7.20;;
21804;SDS011;11064;47.102;15.452;2022-11-21T09:35:27;10.10;;;7.53;;
21804;SDS011;11064;47.102;15.452;2022-11-21T09:37:54;9.82;;;6.22;;
21804;SDS011;11064;47.102;15.452;2022-11-21T09:40:20;9.10;;;7.15;;
21804;SDS011;11064;47.102;15.452;2022-11-21T09:42:59;10.95;;;6.35;;
21804;SDS011;11064;47.102;15.452;2022-11-21T09:45:46;8.13;;;5.80;;
21804;SDS011;11064;47.102;15.452;2022-11-21T09:48:18;8.93;;;5.90;;
21804;SDS011;11064;47.102;15.452;2022-11-21T09:50:56;10.35;;;6.68;;
21804;SDS011;11064;47.102;15.452;2022-11-21T09:53:31;9.27;;;6.63;;
21804;SDS011;11064;47.102;15.452;2022-11-21T09:56:05;10.52;;;6.70;;
21804;SDS011;11064;47.102;15.452;2022-11-21T09:58:42;9.93;;;6.05;;
21804;SDS011;11064;47.102;15.452;2022-11-21T10:01:31;9.93;;;7.20;;
21804;SDS011;11064;47.102;15.452;2022-11-21T10:03:57;11.55;;;7.75;;
21804;SDS011;11064;47.102;15.452;2022-11-21T10:06:28;12.07;;;6.97;;
21804;SDS011;11064;47.102;15.452;2022-11-21T10:12:07;11.95;;;7.65;;
21804;SDS011;11064;47.102;15.452;2022-11-21T10:21:01;10.88;;;6.50;;
21804;SDS011;11064;47.102;15.452;2022-11-21T10:26:44;11.45;;;7.43;;
21804;SDS011;11064;47.102;15.452;2022-11-21T10:29:17;13.82;;;8.52;;
21804;SDS011;11064;47.102;15.452;2022-11-21T10:31:48;14.73;;;7.57;;
21804;SDS011;11064;47.102;15.452;2022-11-21T10:34:17;10.70;;;6.97;;
21804;SDS011;11064;47.102;15.452;2022-11-21T10:36:49;9.77;;;7.53;;
21804;SDS011;11064;47.102;15.452;2022-11-21T10:39:26;9.70;;;7.05;;
21804;SDS011;11064;47.102;15.452;2022-11-21T10:41:57;12.23;;;7.05;;
21804;SDS011;11064;47.102;15.452;2022-11-21T10:44:29;12.18;;;7.35;;
21804;SDS011;11064;47.102;15.452;2022-11-21T10:47:18;13.73;;;8.82;;
21804;SDS011;11064;47.102;15.452;2022-11-21T10:49:53;13.90;;;9.63;;
21804;SDS011;11064;47.102;15.452;2022-11-21T10:55:14;17.17;;;9.52;;
21804;SDS011;11064;47.102;15.452;2022-11-21T10:57:47;14.10;;;9.02;;
21804;SDS011;11064;47.102;15.452;2022-11-21T11:05:37;17.30;;;10.88;;
21804;SDS011;11064;47.102;15.452;2022-11-21T11:08:09;15.55;;;10.32;;
21804;SDS011;11064;47.102;15.452;2022-11-21T11:10:37;23.45;;;11.68;;
21804;SDS011;11064;47.102;15.452;2022-11-21T11:18:26;19.23;;;10.70;;
21804;SDS011;11064;47.102;15.452;2022-11-21T11:20:53;19.90;;;10.48;;
21804;SDS011;11064;47.102;15.452;2022-11-21T11:23:45;19.65;;;10.80;;
21804;SDS011;11064;47.102;15.452;2022-11-21T11:28:46;21.88;;;10.90;;
21804;SDS011;11064;47.102;15.452;2022-11-21T11:31:12;18.98;;;10.75;;
21804;SDS011;11064;47.102;15.452;2022-11-21T11:33:38;17.20;;;9.85;;
21804;SDS011;11064;47.102;15.452;2022-11-21T11:38:54;16.08;;;9.88;;
21804;SDS011;11064;47.102;15.452;2022-11-21T11:47:54;15.73;;;9.40;;
21804;SDS011;11064;47.102;15.452;2022-11-21T11:58:40;20.33;;;9.43;;
21804;SDS011;11064;47.102;15.452;2022-11-21T12:01:19;20.15;;;9.30;;
21804;SDS011;11064;47.102;15.452;2022-11-21T12:06:27;17.23;;;10.70;;
21804;SDS011;11064;47.102;15.452;2022-11-21T12:09:00;14.52;;;9.88;;
21804;SDS011;11064;47.102;15.452;2022-11-21T12:11:50;15.02;;;9.77;;
21804;SDS011;11064;47.102;15.452;2022-11-21T12:14:40;16.40;;;10.60;;
21804;SDS011;11064;47.102;15.452;2022-11-21T12:17:50;16.25;;;10.15;;
21804;SDS011;11064;47.102;15.452;2022-11-21T12:23:26;17.98;;;10.13;;
21804;SDS011;11064;47.102;15.452;2022-11-21T12:26:20;14.40;;;9.65;;
21804;SDS011;11064;47.102;15.452;2022-11-21T12:32:07;15.63;;;9.88;;
21804;SDS011;11064;47.102;15.452;2022-11-21T12:46:14;14.02;;;8.90;;
21804;SDS011;11064;47.102;15.452;2022-11-21T12:49:02;12.93;;;9.00;;
21804;SDS011;11064;47.102;15.452;2022-11-21T12:52:30;11.43;;;8.02;;
21804;SDS011;11064;47.102;15.452;2022-11-21T12:55:08;12.20;;;8.18;;
21804;SDS011;11064;47.102;15.452;2022-11-21T13:03:56;11.05;;;8.38;;
21804;SDS011;11064;47.102;15.452;2022-11-21T13:06:35;13.85;;;8.20;;
21804;SDS011;11064;47.102;15.452;2022-11-21T13:09:06;12.50;;;8.40;;
21804;SDS011;11064;47.102;15.452;2022-11-21T13:17:19;13.75;;;8.93;;
21804;SDS011;11064;47.102;15.452;2022-11-21T13:27:54;13.48;;;8.23;;
21804;SDS011;11064;47.102;15.452;2022-11-21T13:30:49;12.63;;;8.20;;
21804;SDS011;11064;47.102;15.452;2022-11-21T13:36:01;10.38;;;8.10;;
21804;SDS011;11064;47.102;15.452;2022-11-21T13:38:29;13.07;;;8.35;;
21804;SDS011;11064;47.102;15.452;2022-11-21T13:40:56;14.50;;;9.30;;
21804;SDS011;11064;47.102;15.452;2022-11-21T13:43:40;14.35;;;9.68;;
21804;SDS011;11064;47.102;15.452;2022-11-21T13:46:06;14.18;;;9.45;;
21804;SDS011;11064;47.102;15.452;2022-11-21T13:49:33;13.60;;;9.80;;
21804;SDS011;11064;47.102;15.452;2022-11-21T13:59:58;14.50;;;10.02;;
21804;SDS011;11064;47.102;15.452;2022-11-21T14:08:17;15.30;;;10.50;;
21804;SDS011;11064;47.102;15.452;2022-11-21T14:10:45;16.08;;;10.93;;
21804;SDS011;11064;47.102;15.452;2022-11-21T14:13:23;15.73;;;10.85;;
21804;SDS011;11064;47.102;15.452;2022-11-21T14:15:51;16.15;;;11.23;;
21804;SDS011;11064;47.102;15.452;2022-11-21T14:18:37;17.33;;;10.43;;
21804;SDS011;11064;47.102;15.452;2022-11-21T14:21:15;19.40;;;11.40;;
21804;SDS011;11064;47.102;15.452;2022-11-21T14:23:50;17.77;;;11.75;;
21804;SDS011;11064;47.102;15.452;2022-11-21T14:26:22;18.95;;;12.07;;
21804;SDS011;11064;47.102;15.452;2022-11-21T14:28:49;19.05;;;12.80;;
21804;SDS011;11064;47.102;15.452;2022-11-21T14:31:15;22.10;;;13.65;;
21804;SDS011;11064;47.102;15.452;2022-11-21T14:33:42;18.30;;;12.57;;
21804;SDS011;11064;47.102;15.452;2022-11-21T14:36:13;21.63;;;13.07;;
21804;SDS011;11064;47.102;15.452;2022-11-21T14:38:40;21.10;;;12.88;;
21804;SDS011;11064;47.102;15.452;2022-11-21T14:46:39;23.70;;;12.00;;
21804;SDS011;11064;47.102;15.452;2022-11-21T14:49:16;18.20;;;11.48;;
21804;SDS011;11064;47.102;15.452;2022-11-21T14:51:48;16.85;;;11.80;;
21804;SDS011;11064;47.102;15.452;2022-11-21T14:54:21;20.67;;;12.32;;
21804;SDS011;11064;47.102;15.452;2022-11-21T14:57:07;18.65;;;13.07;;
21804;SDS011;11064;47.102;15.452;2022-11-21T15:00:08;19.38;;;13.35;;
21804;SDS011;11064;47.102;15.452;2022-11-21T15:02:42;20.67;;;13.02;;
21804;SDS011;11064;47.102;15.452;2022-11-21T15:05:13;18.58;;;12.98;;
21804;SDS011;11064;47.102;15.452;2022-11-21T15:07:40;22.42;;;13.88;;
21804;SDS011;11064;47.102;15.452;2022-11-21T15:10:13;19.77;;;13.27;;
21804;SDS011;11064;47.102;15.452;2022-11-21T15:12:49;20.00;;;13.35;;
21804;SDS011;11064;47.102;15.452;2022-11-21T15:15:29;23.25;;;13.70;;
21804;SDS011;11064;47.102;15.452;2022-11-21T15:17:57;20.92;;;13.82;;
21804;SDS011;11064;47.102;15.452;2022-11-21T15:20:29;22.92;;;14.07;;
21804;SDS011;11064;47.102;15.452;2022-11-21T15:22:57;21.83;;;14.18;;
21804;SDS011;11064;47.102;15.452;2022-11-21T15:25:28;19.05;;;13.23;;
21804;SDS011;11064;47.102;15.452;2022-11-21T15:30:26;22.77;;;13.57;;
21804;SDS011;11064;47.102;15.452;2022-11-21T15:33:09;20.67;;;13.70;;
21804;SDS011;11064;47.102;15.452;2022-11-21T15:41:01;21.65;;;13.57;;
21804;SDS011;11064;47.102;15.452;2022-11-21T15:48:56;21.65;;;13.00;;
21804;SDS011;11064;47.102;15.452;2022-11-21T15:51:25;21.27;;;13.75;;
21804;SDS011;11064;47.102;15.452;2022-11-21T15:53:57;20.65;;;14.30;;
21804;SDS011;11064;47.102;15.452;2022-11-21T15:56:23;20.88;;;13.68;;
21804;SDS011;11064;47.102;15.452;2022-11-21T15:58:50;24.40;;;16.00;;
21804;SDS011;11064;47.102;15.452;2022-11-21T16:01:17;24.33;;;15.57;;
21804;SDS011;11064;47.102;15.452;2022-11-21T16:03:44;26.58;;;15.43;;
21804;SDS011;11064;47.102;15.452;2022-11-21T16:06:13;21.42;;;14.68;;
21804;SDS011;11064;47.102;15.452;2022-11-21T16:08:39;24.48;;;14.32;;
21804;SDS011;11064;47.102;15.452;2022-11-21T16:11:05;20.40;;;14.57;;
21804;SDS011;11064;47.102;15.452;2022-11-21T16:13:31;21.27;;;14.35;;
21804;SDS011;11064;47.102;15.452;2022-11-21T16:16:00;21.05;;;14.00;;
21804;SDS011;11064;47.102;15.452;2022-11-21T16:18:26;21.88;;;13.43;;
21804;SDS011;11064;47.102;15.452;2022-11-21T16:21:02;20.52;;;13.55;;
21804;SDS011;11064;47.102;15.452;2022-11-21T16:23:30;20.42;;;13.20;;
21804;SDS011;11064;47.102;15.452;2022-11-21T16:25:56;19.10;;;13.02;;
21804;SDS011;11064;47.102;15.452;2022-11-21T16:28:21;18.10;;;12.48;;
21804;SDS011;11064;47.102;15.452;2022-11-21T16:30:47;19.55;;;12.70;;
21804;SDS011;11064;47.102;15.452;2022-11-21T16:33:13;21.05;;;13.13;;
21804;SDS011;11064;47.102;15.452;2022-11-21T16:35:39;22.17;;;13.43;;
21804;SDS011;11064;47.102;15.452;2022-11-21T16:38:08;21.08;;;13.98;;
21804;SDS011;11064;47.102;15.452;2022-11-21T16:40:34;18.48;;;12.75;;
21804;SDS011;11064;47.102;15.452;2022-11-21T16:43:07;25.95;;;14.32;;
21804;SDS011;11064;47.102;15.452;2022-11-21T16:45:34;20.67;;;13.02;;
21804;SDS011;11064;47.102;15.452;2022-11-21T16:48:01;21.50;;;13.45;;
21804;SDS011;11064;47.102;15.452;2022-11-21T16:50:27;22.13;;;13.93;;
21804;SDS011;11064;47.102;15.452;2022-11-21T16:52:53;21.02;;;13.35;;
21804;SDS011;11064;47.102;15.452;2022-11-21T16:55:18;21.48;;;13.75;;
21804;SDS011;11064;47.102;15.452;2022-11-21T16:57:44;22.83;;;14.07;;
21804;SDS011;11064;47.102;15.452;2022-11-21T17:00:10;20.80;;;13.15;;
21804;SDS011;11064;47.102;15.452;2022-11-21T17:02:36;21.92;;;13.63;;
21804;SDS011;11064;47.102;15.452;2022-11-21T17:05:03;22.90;;;13.85;;
21804;SDS011;11064;47.102;15.452;2022-11-21T17:07:30;21.48;;;13.73;;
21804;SDS011;11064;47.102;15.452;2022-11-21T17:09:56;25.02;;;14.07;;
21804;SDS011;11064;47.102;15.452;2022-11-21T17:12:22;22.52;;;14.98;;
21804;SDS011;11064;47.102;15.452;2022-11-21T17:14:48;22.17;;;13.45;;
21804;SDS011;11064;47.102;15.452;2022-11-21T17:17:14;21.33;;;13.70;;
21804;SDS011;11064;47.102;15.452;2022-11-21T17:19:40;21.30;;;13.65;;
21804;SDS011;11064;47.102;15.452;2022-11-21T17:22:06;52.88;;;30.95;;
21804;SDS011;11064;47.102;15.452;2022-11-21T17:24:32;33.25;;;20.38;;
21804;SDS011;11064;47.102;15.452;2022-11-21T17:26:57;28.75;;;17.73;;
21804;SDS011;11064;47.102;15.452;2022-11-21T17:29:27;23.90;;;14.80;;
21804;SDS011;11064;47.102;15.452;2022-11-21T17:31:53;24.20;;;14.27;;
21804;SDS011;11064;47.102;15.452;2022-11-21T17:34:19;21.67;;;13.20;;
21804;SDS011;11064;47.102;15.452;2022-11-21T17:36:45;21.95;;;13.82;;
21804;SDS011;11064;47.102;15.452;2022-11-21T17:39:11;20.05;;;12.82;;
21804;SDS011;11064;47.102;15.452;2022-11-21T17:41:37;23.05;;;14.23;;
21804;SDS011;11064;47.102;15.452;2022-11-21T17:44:06;20.98;;;13.05;;
21804;SDS011;11064;47.102;15.452;2022-11-21T17:46:31;19.95;;;13.43;;
21804;SDS011;11064;47.102;15.452;2022-11-21T17:48:57;20.80;;;13.48;;
21804;SDS011;11064;47.102;15.452;2022-11-21T17:51:24;20.50;;;13.20;;
21804;SDS011;11064;47.102;15.452;2022-11-21T17:53:53;28.47;;;15.97;;
21804;SDS011;11064;47.102;15.452;2022-11-21T17:56:19;24.63;;;14.70;;
21804;SDS011;11064;47.102;15.452;2022-11-21T17:58:47;27.30;;;16.50;;
21804;SDS011;11064;47.102;15.452;2022-11-21T18:01:13;25.15;;;17.00;;
21804;SDS011;11064;47.102;15.452;2022-11-21T18:03:43;28.08;;;16.92;;
21804;SDS011;11064;47.102;15.452;2022-11-21T18:06:11;29.27;;;17.83;;
21804;SDS011;11064;47.102;15.452;2022-11-21T18:08:39;28.27;;;16.30;;
21804;SDS011;11064;47.102;15.452;2022-11-21T18:11:07;27.63;;;17.48;;
21804;SDS011;11064;47.102;15.452;2022-11-21T18:13:35;25.23;;;16.38;;
21804;SDS011;11064;47.102;15.452;2022-11-21T18:16:02;21.90;;;14.32;;
21804;SDS011;11064;47.102;15.452;2022-11-21T18:18:33;23.60;;;15.25;;
21804;SDS011;11064;47.102;15.452;2022-11-21T18:21:03;20.38;;;13.98;;
21804;SDS011;11064;47.102;15.452;2022-11-21T18:23:32;24.52;;;15.32;;
21804;SDS011;11064;47.102;15.452;2022-11-21T18:26:00;23.38;;;15.35;;
21804;SDS011;11064;47.102;15.452;2022-11-21T18:28:29;23.83;;;16.38;;
21804;SDS011;11064;47.102;15.452;2022-11-21T18:31:07;26.95;;;17.13;;
21804;SDS011;11064;47.102;15.452;2022-11-21T18:33:35;29.17;;;17.92;;
21804;SDS011;11064;47.102;15.452;2022-11-21T18:36:02;26.65;;;17.13;;
21804;SDS011;11064;47.102;15.452;2022-11-21T18:38:30;31.85;;;19.15;;
21804;SDS011;11064;47.102;15.452;2022-11-21T18:41:01;25.63;;;16.23;;
21804;SDS011;11064;47.102;15.452;2022-11-21T18:43:31;22.83;;;14.10;;
21804;SDS011;11064;47.102;15.452;2022-11-21T18:46:03;26.60;;;14.75;;
21804;SDS011;11064;47.102;15.452;2022-11-21T18:48:30;21.60;;;13.80;;
21804;SDS011;11064;47.102;15.452;2022-11-21T18:51:10;19.17;;;13.10;;
21804;SDS011;11064;47.102;15.452;2022-11-21T18:53:38;22.50;;;12.88;;
21804;SDS011;11064;47.102;15.452;2022-11-21T18:56:05;20.00;;;12.65;;
21804;SDS011;11064;47.102;15.452;2022-11-21T18:58:36;22.70;;;13.73;;
21804;SDS011;11064;47.102;15.452;2022-11-21T19:01:05;19.38;;;12.93;;
21804;SDS011;11064;47.102;15.452;2022-11-21T19:03:32;22.00;;;13.88;;
21804;SDS011;11064;47.102;15.452;2022-11-21T19:05:58;20.42;;;13.32;;
21804;SDS011;11064;47.102;15.452;2022-11-21T19:08:24;21.02;;;13.20;;
21804;SDS011;11064;47.102;15.452;2022-11-21T19:10:51;23.55;;;13.30;;
21804;SDS011;11064;47.102;15.452;2022-11-21T19:13:17;21.55;;;13.52;;
21804;SDS011;11064;47.102;15.452;2022-11-21T19:15:43;19.83;;;13.25;;
21804;SDS011;11064;47.102;15.452;2022-11-21T19:18:09;22.40;;;13.90;;
21804;SDS011;11064;47.102;15.452;2022-11-21T19:20:39;22.23;;;14.50;;
21804;SDS011;11064;47.102;15.452;2022-11-21T19:23:06;22.45;;;14.57;;
21804;SDS011;11064;47.102;15.452;2022-11-21T19:25:32;26.35;;;17.02;;
21804;SDS011;11064;47.102;15.452;2022-11-21T19:27:59;29.77;;;17.08;;
21804;SDS011;11064;47.102;15.452;2022-11-21T19:30:25;24.08;;;15.80;;
21804;SDS011;11064;47.102;15.452;2022-11-21T19:32:52;23.67;;;15.07;;
21804;SDS011;11064;47.102;15.452;2022-11-21T19:35:18;22.65;;;15.02;;
21804;SDS011;11064;47.102;15.452;2022-11-21T19:37:44;21.40;;;13.10;;
21804;SDS011;11064;47.102;15.452;2022-11-21T19:40:11;25.85;;;14.35;;
21804;SDS011;11064;47.102;15.452;2022-11-21T19:42:38;34.78;;;17.67;;
21804;SDS011;11064;47.102;15.452;2022-11-21T19:45:04;72.50;;;39.90;;
21804;SDS011;11064;47.102;15.452;2022-11-21T19:47:31;86.75;;;49.58;;
21804;SDS011;11064;47.102;15.452;2022-11-21T19:49:58;44.13;;;25.38;;
21804;SDS011;11064;47.102;15.452;2022-11-21T19:52:23;41.30;;;25.75;;
21804;SDS011;11064;47.102;15.452;2022-11-21T19:54:49;35.92;;;20.30;;
21804;SDS011;11064;47.102;15.452;2022-11-21T19:57:15;29.65;;;17.00;;
21804;SDS011;11064;47.102;15.452;2022-11-21T19:59:41;22.85;;;15.18;;
21804;SDS011;11064;47.102;15.452;2022-11-21T20:02:10;27.48;;;16.35;;
21804;SDS011;11064;47.102;15.452;2022-11-21T20:04:43;23.45;;;15.50;;
21804;SDS011;11064;47.102;15.452;2022-11-21T20:07:09;23.92;;;15.77;;
21804;SDS011;11064;47.102;15.452;2022-11-21T20:09:35;30.10;;;17.80;;
21804;SDS011;11064;47.102;15.452;2022-11-21T20:12:01;30.17;;;18.58;;
21804;SDS011;11064;47.102;15.452;2022-11-21T20:14:27;31.52;;;19.13;;
21804;SDS011;11064;47.102;15.452;2022-11-21T20:16:53;34.78;;;21.15;;
21804;SDS011;11064;47.102;15.452;2022-11-21T20:19:20;35.63;;;21.23;;
21804;SDS011;11064;47.102;15.452;2022-11-21T20:21:48;38.50;;;22.67;;
21804;SDS011;11064;47.102;15.452;2022-11-21T20:24:15;35.78;;;21.95;;
21804;SDS011;11064;47.102;15.452;2022-11-21T20:26:41;34.72;;;21.63;;
21804;SDS011;11064;47.102;15.452;2022-11-21T20:29:08;42.75;;;25.83;;
21804;SDS011;11064;47.102;15.452;2022-11-21T20:31:36;36.42;;;22.52;;
21804;SDS011;11064;47.102;15.452;2022-11-21T20:34:11;33.42;;;20.58;;
21804;SDS011;11064;47.102;15.452;2022-11-21T20:36:37;33.80;;;21.33;;
21804;SDS011;11064;47.102;15.452;2022-11-21T20:39:11;37.85;;;22.23;;
21804;SDS011;11064;47.102;15.452;2022-11-21T20:41:38;28.70;;;18.27;;
21804;SDS011;11064;47.102;15.452;2022-11-21T20:44:06;29.40;;;18.40;;
21804;SDS011;11064;47.102;15.452;2022-11-21T20:49:01;27.48;;;17.55;;
21804;SDS011;11064;47.102;15.452;2022-11-21T20:51:27;32.58;;;19.73;;
21804;SDS011;11064;47.102;15.452;2022-11-21T20:53:53;25.95;;;17.27;;
21804;SDS011;11064;47.102;15.452;2022-11-21T20:56:19;27.55;;;16.88;;
21804;SDS011;11064;47.102;15.452;2022-11-21T20:58:45;26.95;;;16.50;;
21804;SDS011;11064;47.102;15.452;2022-11-21T21:01:12;26.95;;;16.92;;
21804;SDS011;11064;47.102;15.452;2022-11-21T21:03:40;29.90;;;18.48;;
21804;SDS011;11064;47.102;15.452;2022-11-21T21:06:07;35.72;;;21.38;;
21804;SDS011;11064;47.102;15.452;2022-11-21T21:08:35;35.30;;;22.52;;
21804;SDS011;11064;47.102;15.452;2022-11-21T21:11:02;42.95;;;27.05;;
21804;SDS011;11064;47.102;15.452;2022-11-21T21:13:30;34.70;;;22.05;;
21804;SDS011;11064;47.102;15.452;2022-11-21T21:16:07;36.88;;;22.83;;
21804;SDS011;11064;47.102;15.452;2022-11-21T21:19:00;31.05;;;18.67;;
21804;SDS011;11064;47.102;15.452;2022-11-21T21:21:26;26.80;;;16.70;;
21804;SDS011;11064;47.102;15.452;2022-11-21T21:26:26;20.17;;;13.77;;
21804;SDS011;11064;47.102;15.452;2022-11-21T21:28:54;18.23;;;12.27;;
21804;SDS011;11064;47.102;15.452;2022-11-21T21:31:21;20.10;;;12.93;;
21804;SDS011;11064;47.102;15.452;2022-11-21T21:33:47;20.55;;;12.55;;
21804;SDS011;11064;47.102;15.452;2022-11-21T21:36:14;19.20;;;12.40;;